sensor_id;sensor_type;location;lat;lon;timestamp;pressure;altitude;pressure_sealevel;temperature;humidity
13486;BME280;6815;59.336;17.998;2023-02-18T00:00:55;52286.78;;;-145.37;100.00
13486;BME280;6815;59.336;17.998;2023-02-18T00:03:27;52282.78;;;-145.37;100.00
13486;BME280;6815;59.336;17.998;2023-02-18T00:05:53;52296.75;;;-145.37;100.00
13486;BME280;6815;59.336;17.998;2023-02-18T00:08:20;52318.72;;;-145.37;100.00
13486;BME280;6815;59.336;17.998;2023-02-18T00:10:45;52280.78;;;-145.37;100.00
13486;BME280;6815;59.336;17.998;2023-02-18T00:13:11;52314.72;;;-145.37;100.00
13486;BME280;6815;59.336;17.998;2023-02-18T00:15:37;52314.72;;;-145.37;100.00
13486;BME280;6815;59.336;17.998;2023-02-18T00:18:04;52292.78;;;-145.37;100.00
13486;BME280;6815;59.336;17.998;2023-02-18T00:20:29;52304.75;;;-145.37;100.00
13486;BME280;6815;59.336;17.998;2023-02-18T00:22:58;52290.78;;;-145.37;100.00
13486;BME280;6815;59.336;17.998;2023-02-18T00:25:24;52286.78;;;-145.37;100.00
13486;BME280;6815;59.336;17.998;2023-02-18T00:27:50;52308.75;;;-145.37;100.00
13486;BME280;6815;59.336;17.998;2023-02-18T00:30:16;52300.75;;;-145.37;100.00
13486;BME280;6815;59.336;17.998;2023-02-18T00:32:41;52272.81;;;-145.37;100.00
13486;BME280;6815;59.336;17.998;2023-02-18T00:35:07;52252.84;;;-145.37;100.00
13486;BME280;6815;59.336;17.998;2023-02-18T00:37:32;52252.84;;;-145.37;100.00
13486;BME280;6815;59.336;17.998;2023-02-18T00:39:58;52276.81;;;-145.37;100.00
13486;BME280;6815;59.336;17.998;2023-02-18T00:42:24;52282.78;;;-145.37;100.00
13486;BME280;6815;59.336;17.998;2023-02-18T00:44:50;52306.75;;;-145.37;100.00
13486;BME280;6815;59.336;17.998;2023-02-18T00:47:15;52294.75;;;-145.37;100.00
13486;BME280;6815;59.336;17.998;2023-02-18T00:49:41;52268.81;;;-145.37;100.00
13486;BME280;6815;59.336;17.998;2023-02-18T00:52:07;52286.78;;;-145.37;100.00
13486;BME280;6815;59.336;17.998;2023-02-18T00:54:32;52286.78;;;-145.37;100.00
13486;BME280;6815;59.336;17.998;2023-02-18T00:57:01;52260.84;;;-145.37;100.00
13486;BME280;6815;59.336;17.998;2023-02-18T00:59:26;52296.75;;;-145.37;100.00
13486;BME280;6815;59.336;17.998;2023-02-18T01:01:52;52338.69;;;-145.37;100.00
13486;BME280;6815;59.336;17.998;2023-02-18T01:04:17;52252.84;;;-145.37;100.00
13486;BME280;6815;59.336;17.998;2023-02-18T01:06:42;52248.84;;;-145.37;100.00
13486;BME280;6815;59.336;17.998;2023-02-18T01:09:09;52298.75;;;-145.37;100.00
13486;BME280;6815;59.336;17.998;2023-02-18T01:11:34;52270.81;;;-145.37;100.00
13486;BME280;6815;59.336;17.998;2023-02-18T01:14:00;52218.91;;;-145.37;100.00
13486;BME280;6815;59.336;17.998;2023-02-18T01:16:25;52298.75;;;-145.37;100.00
13486;BME280;6815;59.336;17.998;2023-02-18T01:18:51;52254.84;;;-145.37;100.00
13486;BME280;6815;59.336;17.998;2023-02-18T01:21:17;52270.81;;;-145.37;100.00
13486;BME280;6815;59.336;17.998;2023-02-18T01:23:43;52284.78;;;-145.37;100.00
13486;BME280;6815;59.336;17.998;2023-02-18T01:26:09;52276.81;;;-145.37;100.00
13486;BME280;6815;59.336;17.998;2023-02-18T01:28:34;52280.78;;;-145.37;100.00
13486;BME280;6815;59.336;17.998;2023-02-18T01:31:06;52284.78;;;-145.37;100.00
13486;BME280;6815;59.336;17.998;2023-02-18T01:33:32;52270.81;;;-145.37;100.00
13486;BME280;6815;59.336;17.998;2023-02-18T01:35:58;52306.75;;;-145.37;99.77
13486;BME280;6815;59.336;17.998;2023-02-18T01:38:24;52252.84;;;-145.37;98.38
13486;BME280;6815;59.336;17.998;2023-02-18T01:40:51;52228.88;;;-145.37;97.85
13486;BME280;6815;59.336;17.998;2023-02-18T01:43:18;52300.75;;;-145.37;97.28
13486;BME280;6815;59.336;17.998;2023-02-18T01:45:59;52254.84;;;-145.37;97.33
13486;BME280;6815;59.336;17.998;2023-02-18T01:48:56;52232.88;;;-145.37;97.17
13486;BME280;6815;59.336;17.998;2023-02-18T01:51:26;52270.81;;;-145.37;96.59
13486;BME280;6815;59.336;17.998;2023-02-18T01:56:37;52232.88;;;-145.37;95.88
13486;BME280;6815;59.336;17.998;2023-02-18T01:59:15;52298.75;;;-145.37;95.83
13486;BME280;6815;59.336;17.998;2023-02-18T02:01:43;52274.81;;;-145.37;95.93
13486;BME280;6815;59.336;17.998;2023-02-18T02:04:09;52272.81;;;-145.37;95.95
13486;BME280;6815;59.336;17.998;2023-02-18T02:06:35;52264.81;;;-145.37;96.10
13486;BME280;6815;59.336;17.998;2023-02-18T02:09:03;52308.75;;;-145.37;96.16
13486;BME280;6815;59.336;17.998;2023-02-18T02:12:01;52282.78;;;-145.37;96.51
13486;BME280;6815;59.336;17.998;2023-02-18T02:17:05;52268.81;;;-145.37;96.66
13486;BME280;6815;59.336;17.998;2023-02-18T02:35:06;52282.78;;;-145.37;96.63
13486;BME280;6815;59.336;17.998;2023-02-18T02:37:54;52282.78;;;-145.37;96.82
13486;BME280;6815;59.336;17.998;2023-02-18T02:40:30;52266.81;;;-145.37;96.87
13486;BME280;6815;59.336;17.998;2023-02-18T02:45:53;52278.78;;;-145.37;97.51
13486;BME280;6815;59.336;17.998;2023-02-18T02:48:47;52246.84;;;-145.37;98.02
13486;BME280;6815;59.336;17.998;2023-02-18T02:51:36;52248.84;;;-145.37;98.00
13486;BME280;6815;59.336;17.998;2023-02-18T02:56:41;52206.94;;;-145.37;98.27
13486;BME280;6815;59.336;17.998;2023-02-18T02:59:21;52288.78;;;-145.37;98.21
13486;BME280;6815;59.336;17.998;2023-02-18T03:10:40;52242.88;;;-145.37;97.29
13486;BME280;6815;59.336;17.998;2023-02-18T03:23:20;52274.81;;;-145.37;96.80
13486;BME280;6815;59.336;17.998;2023-02-18T03:25:49;52234.88;;;-145.37;96.74
13486;BME280;6815;59.336;17.998;2023-02-18T03:28:19;52276.81;;;-145.37;96.92
13486;BME280;6815;59.336;17.998;2023-02-18T03:31:06;52306.75;;;-145.37;96.76
13486;BME280;6815;59.336;17.998;2023-02-18T03:33:36;52258.84;;;-145.37;96.76
13486;BME280;6815;59.336;17.998;2023-02-18T03:36:03;52260.84;;;-145.37;97.27
13486;BME280;6815;59.336;17.998;2023-02-18T03:38:39;52268.81;;;-145.37;97.62
13486;BME280;6815;59.336;17.998;2023-02-18T03:41:06;52254.84;;;-145.37;97.88
13486;BME280;6815;59.336;17.998;2023-02-18T03:43:32;52268.81;;;-145.37;98.01
13486;BME280;6815;59.336;17.998;2023-02-18T03:45:58;52260.84;;;-145.37;97.83
13486;BME280;6815;59.336;17.998;2023-02-18T03:48:23;52260.84;;;-145.37;98.35
13486;BME280;6815;59.336;17.998;2023-02-18T03:50:49;52256.84;;;-145.37;98.63
13486;BME280;6815;59.336;17.998;2023-02-18T03:53:14;52270.81;;;-145.37;98.54
13486;BME280;6815;59.336;17.998;2023-02-18T03:55:40;52256.84;;;-145.37;98.38
13486;BME280;6815;59.336;17.998;2023-02-18T03:58:06;52268.81;;;-145.37;98.50
13486;BME280;6815;59.336;17.998;2023-02-18T04:00:32;52296.75;;;-145.37;98.57
13486;BME280;6815;59.336;17.998;2023-02-18T04:02:58;52240.88;;;-145.37;98.41
13486;BME280;6815;59.336;17.998;2023-02-18T04:05:24;52240.88;;;-145.37;98.68
13486;BME280;6815;59.336;17.998;2023-02-18T04:07:50;52258.84;;;-145.37;98.83
13486;BME280;6815;59.336;17.998;2023-02-18T04:10:16;52280.78;;;-145.37;98.99
13486;BME280;6815;59.336;17.998;2023-02-18T04:12:41;52264.81;;;-145.37;98.74
13486;BME280;6815;59.336;17.998;2023-02-18T04:15:07;52302.75;;;-145.37;98.71
13486;BME280;6815;59.336;17.998;2023-02-18T04:17:33;52262.81;;;-145.37;98.50
13486;BME280;6815;59.336;17.998;2023-02-18T04:19:59;52258.84;;;-145.37;98.46
13486;BME280;6815;59.336;17.998;2023-02-18T04:22:27;52258.84;;;-145.37;98.44
13486;BME280;6815;59.336;17.998;2023-02-18T04:24:54;52290.78;;;-145.37;98.29
13486;BME280;6815;59.336;17.998;2023-02-18T04:27:23;52268.81;;;-145.37;98.31
13486;BME280;6815;59.336;17.998;2023-02-18T04:29:49;52292.78;;;-145.37;97.71
13486;BME280;6815;59.336;17.998;2023-02-18T04:32:15;52312.72;;;-145.37;97.79
13486;BME280;6815;59.336;17.998;2023-02-18T04:34:42;52282.78;;;-145.37;98.07
13486;BME280;6815;59.336;17.998;2023-02-18T04:37:09;52234.88;;;-145.37;97.82
13486;BME280;6815;59.336;17.998;2023-02-18T04:39:35;52228.88;;;-145.37;97.23
13486;BME280;6815;59.336;17.998;2023-02-18T04:42:00;52260.84;;;-145.37;97.34
13486;BME280;6815;59.336;17.998;2023-02-18T04:44:26;52252.84;;;-145.37;97.23
13486;BME280;6815;59.336;17.998;2023-02-18T04:46:51;52304.75;;;-145.37;97.64
13486;BME280;6815;59.336;17.998;2023-02-18T04:49:17;52296.75;;;-145.37;97.28
13486;BME280;6815;59.336;17.998;2023-02-18T04:51:42;52246.84;;;-145.37;97.48
13486;BME280;6815;59.336;17.998;2023-02-18T04:54:09;52270.81;;;-145.37;97.36
13486;BME280;6815;59.336;17.998;2023-02-18T04:56:34;52280.78;;;-145.37;97.09
13486;BME280;6815;59.336;17.998;2023-02-18T04:58:59;52362.63;;;-145.37;97.34
13486;BME280;6815;59.336;17.998;2023-02-18T05:01:25;52268.81;;;-145.37;96.94
13486;BME280;6815;59.336;17.998;2023-02-18T05:03:50;52280.78;;;-145.37;96.36
13486;BME280;6815;59.336;17.998;2023-02-18T05:06:16;52260.84;;;-145.37;96.85
13486;BME280;6815;59.336;17.998;2023-02-18T05:08:41;52278.78;;;-145.37;96.95
13486;BME280;6815;59.336;17.998;2023-02-18T05:11:07;52312.72;;;-145.37;96.46
13486;BME280;6815;59.336;17.998;2023-02-18T05:13:33;52272.81;;;-145.37;96.52
13486;BME280;6815;59.336;17.998;2023-02-18T05:16:00;52290.78;;;-145.37;96.29
13486;BME280;6815;59.336;17.998;2023-02-18T05:18:26;52254.84;;;-145.37;96.38
13486;BME280;6815;59.336;17.998;2023-02-18T05:20:51;52266.81;;;-145.37;96.35
13486;BME280;6815;59.336;17.998;2023-02-18T05:23:17;52264.81;;;-145.37;96.38
13486;BME280;6815;59.336;17.998;2023-02-18T05:25:44;52268.81;;;-145.37;95.93
13486;BME280;6815;59.336;17.998;2023-02-18T05:28:09;52270.81;;;-145.37;96.04
13486;BME280;6815;59.336;17.998;2023-02-18T05:30:35;52242.88;;;-145.37;96.23
13486;BME280;6815;59.336;17.998;2023-02-18T05:33:00;52230.88;;;-145.37;95.94
13486;BME280;6815;59.336;17.998;2023-02-18T05:35:26;52244.84;;;-145.37;95.49
13486;BME280;6815;59.336;17.998;2023-02-18T05:37:51;52280.78;;;-145.37;95.52
13486;BME280;6815;59.336;17.998;2023-02-18T05:40:16;52260.84;;;-145.37;95.38
13486;BME280;6815;59.336;17.998;2023-02-18T05:42:43;52308.75;;;-145.37;95.24
13486;BME280;6815;59.336;17.998;2023-02-18T05:45:10;52352.66;;;-145.37;95.05
13486;BME280;6815;59.336;17.998;2023-02-18T05:47:38;52284.78;;;-145.37;94.47
13486;BME280;6815;59.336;17.998;2023-02-18T05:50:04;52328.69;;;-145.37;94.73
13486;BME280;6815;59.336;17.998;2023-02-18T05:52:30;52280.78;;;-145.37;94.45
13486;BME280;6815;59.336;17.998;2023-02-18T05:54:55;52246.84;;;-145.37;94.67
13486;BME280;6815;59.336;17.998;2023-02-18T05:57:21;52242.88;;;-145.37;94.62
13486;BME280;6815;59.336;17.998;2023-02-18T05:59:47;52264.81;;;-145.37;94.86
13486;BME280;6815;59.336;17.998;2023-02-18T06:02:13;52268.81;;;-145.37;95.15
13486;BME280;6815;59.336;17.998;2023-02-18T06:04:38;52252.84;;;-145.37;95.39
13486;BME280;6815;59.336;17.998;2023-02-18T06:07:05;52282.78;;;-145.37;95.71
13486;BME280;6815;59.336;17.998;2023-02-18T06:09:31;52314.72;;;-145.37;95.39
13486;BME280;6815;59.336;17.998;2023-02-18T06:11:56;52300.75;;;-145.37;95.54
13486;BME280;6815;59.336;17.998;2023-02-18T06:14:22;52246.84;;;-145.37;95.30
13486;BME280;6815;59.336;17.998;2023-02-18T06:16:47;52310.75;;;-145.37;95.28
13486;BME280;6815;59.336;17.998;2023-02-18T06:19:12;52206.94;;;-145.37;95.02
13486;BME280;6815;59.336;17.998;2023-02-18T06:21:38;52266.81;;;-145.37;94.96
13486;BME280;6815;59.336;17.998;2023-02-18T06:24:04;52224.91;;;-145.37;94.53
13486;BME280;6815;59.336;17.998;2023-02-18T06:26:29;52256.84;;;-145.37;93.91
13486;BME280;6815;59.336;17.998;2023-02-18T06:28:55;52278.78;;;-145.37;94.01
13486;BME280;6815;59.336;17.998;2023-02-18T06:31:20;52274.81;;;-145.37;93.72
13486;BME280;6815;59.336;17.998;2023-02-18T06:33:46;52260.84;;;-145.37;93.40
13486;BME280;6815;59.336;17.998;2023-02-18T06:36:11;52336.69;;;-145.37;93.97
13486;BME280;6815;59.336;17.998;2023-02-18T06:38:42;52284.78;;;-145.37;93.64
13486;BME280;6815;59.336;17.998;2023-02-18T06:41:08;52308.75;;;-145.37;93.40
13486;BME280;6815;59.336;17.998;2023-02-18T06:43:34;52284.78;;;-145.37;93.33
13486;BME280;6815;59.336;17.998;2023-02-18T06:45:59;52286.78;;;-145.37;93.34
13486;BME280;6815;59.336;17.998;2023-02-18T06:48:25;52304.75;;;-145.37;92.95
13486;BME280;6815;59.336;17.998;2023-02-18T06:50:50;52272.81;;;-145.37;92.74
13486;BME280;6815;59.336;17.998;2023-02-18T06:53:16;52268.81;;;-145.37;92.91
13486;BME280;6815;59.336;17.998;2023-02-18T06:55:42;52266.81;;;-145.37;92.83
13486;BME280;6815;59.336;17.998;2023-02-18T06:58:09;52262.81;;;-145.37;92.99
13486;BME280;6815;59.336;17.998;2023-02-18T07:00:36;52296.75;;;-145.37;92.84
13486;BME280;6815;59.336;17.998;2023-02-18T07:03:03;52260.84;;;-145.37;93.23
13486;BME280;6815;59.336;17.998;2023-02-18T07:05:28;52278.78;;;-145.37;93.12
13486;BME280;6815;59.336;17.998;2023-02-18T07:07:54;52260.84;;;-145.37;92.96
13486;BME280;6815;59.336;17.998;2023-02-18T07:10:20;52256.84;;;-145.37;92.67
13486;BME280;6815;59.336;17.998;2023-02-18T07:12:45;52260.84;;;-145.37;92.24
13486;BME280;6815;59.336;17.998;2023-02-18T07:15:11;52240.88;;;-145.37;92.22
13486;BME280;6815;59.336;17.998;2023-02-18T07:17:36;52278.78;;;-145.37;91.93
13486;BME280;6815;59.336;17.998;2023-02-18T07:20:03;52268.81;;;-145.37;92.11
13486;BME280;6815;59.336;17.998;2023-02-18T07:22:28;52284.78;;;-145.37;91.88
13486;BME280;6815;59.336;17.998;2023-02-18T07:24:54;52306.75;;;-145.37;91.78
13486;BME280;6815;59.336;17.998;2023-02-18T07:27:20;52272.81;;;-145.37;91.35
13486;BME280;6815;59.336;17.998;2023-02-18T07:29:46;52266.81;;;-145.37;91.27
13486;BME280;6815;59.336;17.998;2023-02-18T07:32:12;52266.81;;;-145.37;90.86
13486;BME280;6815;59.336;17.998;2023-02-18T07:34:38;52298.75;;;-145.37;90.55
13486;BME280;6815;59.336;17.998;2023-02-18T07:37:04;52270.81;;;-145.37;90.38
13486;BME280;6815;59.336;17.998;2023-02-18T07:39:39;52256.84;;;-145.37;90.40
13486;BME280;6815;59.336;17.998;2023-02-18T07:42:04;52262.81;;;-145.37;90.21
13486;BME280;6815;59.336;17.998;2023-02-18T07:44:30;52278.78;;;-145.37;90.08
13486;BME280;6815;59.336;17.998;2023-02-18T07:46:55;52346.66;;;-145.37;89.82
13486;BME280;6815;59.336;17.998;2023-02-18T07:49:21;52226.91;;;-145.37;89.50
13486;BME280;6815;59.336;17.998;2023-02-18T07:51:47;52260.84;;;-145.37;89.55
13486;BME280;6815;59.336;17.998;2023-02-18T07:54:13;52278.78;;;-145.37;89.57
13486;BME280;6815;59.336;17.998;2023-02-18T07:56:39;52288.78;;;-145.37;89.66
13486;BME280;6815;59.336;17.998;2023-02-18T07:59:05;52282.78;;;-145.37;88.79
13486;BME280;6815;59.336;17.998;2023-02-18T08:01:30;52220.91;;;-145.37;88.84
13486;BME280;6815;59.336;17.998;2023-02-18T08:03:55;52252.84;;;-145.37;88.35
13486;BME280;6815;59.336;17.998;2023-02-18T08:06:25;52278.78;;;-145.37;88.50
13486;BME280;6815;59.336;17.998;2023-02-18T08:08:52;52264.81;;;-145.37;88.98
13486;BME280;6815;59.336;17.998;2023-02-18T08:11:18;52250.84;;;-145.37;88.53
13486;BME280;6815;59.336;17.998;2023-02-18T08:13:44;52254.84;;;-145.37;88.25
13486;BME280;6815;59.336;17.998;2023-02-18T08:16:10;52278.78;;;-145.37;88.39
13486;BME280;6815;59.336;17.998;2023-02-18T08:18:35;52276.81;;;-145.37;88.30
13486;BME280;6815;59.336;17.998;2023-02-18T08:21:01;52234.88;;;-145.37;88.39
13486;BME280;6815;59.336;17.998;2023-02-18T08:23:26;52276.81;;;-145.37;88.73
13486;BME280;6815;59.336;17.998;2023-02-18T08:25:53;52242.88;;;-145.37;88.64
13486;BME280;6815;59.336;17.998;2023-02-18T08:28:21;52264.81;;;-145.37;88.19
13486;BME280;6815;59.336;17.998;2023-02-18T08:30:48;52256.84;;;-145.37;88.06
13486;BME280;6815;59.336;17.998;2023-02-18T08:33:14;52246.84;;;-145.37;88.41
13486;BME280;6815;59.336;17.998;2023-02-18T08:35:40;52268.81;;;-145.37;88.32
13486;BME280;6815;59.336;17.998;2023-02-18T08:38:05;52278.78;;;-145.37;87.74
13486;BME280;6815;59.336;17.998;2023-02-18T08:40:31;52252.84;;;-145.37;87.62
13486;BME280;6815;59.336;17.998;2023-02-18T08:42:56;52256.84;;;-145.37;87.03
13486;BME280;6815;59.336;17.998;2023-02-18T08:45:22;52282.78;;;-145.37;87.09
13486;BME280;6815;59.336;17.998;2023-02-18T08:47:47;52296.75;;;-145.37;86.81
13486;BME280;6815;59.336;17.998;2023-02-18T08:50:13;52274.81;;;-145.37;86.53
13486;BME280;6815;59.336;17.998;2023-02-18T08:52:38;52300.75;;;-145.37;86.78
13486;BME280;6815;59.336;17.998;2023-02-18T08:55:04;52292.78;;;-145.37;86.59
13486;BME280;6815;59.336;17.998;2023-02-18T08:57:30;52304.75;;;-145.37;86.50
13486;BME280;6815;59.336;17.998;2023-02-18T08:59:56;52244.84;;;-145.37;86.26
13486;BME280;6815;59.336;17.998;2023-02-18T09:02:21;52292.78;;;-145.37;85.58
13486;BME280;6815;59.336;17.998;2023-02-18T09:04:47;52242.88;;;-145.37;85.54
13486;BME280;6815;59.336;17.998;2023-02-18T09:07:13;52252.84;;;-145.37;85.43
13486;BME280;6815;59.336;17.998;2023-02-18T09:09:38;52270.81;;;-145.37;85.06
13486;BME280;6815;59.336;17.998;2023-02-18T09:12:04;52272.81;;;-145.37;85.49
13486;BME280;6815;59.336;17.998;2023-02-18T09:14:29;52266.81;;;-145.37;85.12
13486;BME280;6815;59.336;17.998;2023-02-18T09:16:56;52224.91;;;-145.37;84.98
13486;BME280;6815;59.336;17.998;2023-02-18T09:19:22;52272.81;;;-145.37;84.67
13486;BME280;6815;59.336;17.998;2023-02-18T09:21:47;52268.81;;;-145.37;84.77
13486;BME280;6815;59.336;17.998;2023-02-18T09:24:13;52310.75;;;-145.37;84.30
13486;BME280;6815;59.336;17.998;2023-02-18T09:26:38;52304.75;;;-145.37;84.57
13486;BME280;6815;59.336;17.998;2023-02-18T09:29:05;52278.78;;;-145.37;84.00
13486;BME280;6815;59.336;17.998;2023-02-18T09:31:30;52232.88;;;-145.37;83.79
13486;BME280;6815;59.336;17.998;2023-02-18T09:33:58;52270.81;;;-145.37;84.12
13486;BME280;6815;59.336;17.998;2023-02-18T09:36:25;52266.81;;;-145.37;83.80
13486;BME280;6815;59.336;17.998;2023-02-18T09:38:51;52274.81;;;-145.37;83.85
13486;BME280;6815;59.336;17.998;2023-02-18T09:44:03;52264.81;;;-145.37;83.16
13486;BME280;6815;59.336;17.998;2023-02-18T09:46:33;52284.78;;;-145.37;83.21
13486;BME280;6815;59.336;17.998;2023-02-18T09:49:07;52246.84;;;-145.37;83.36
13486;BME280;6815;59.336;17.998;2023-02-18T09:51:37;52284.78;;;-145.37;82.84
13486;BME280;6815;59.336;17.998;2023-02-18T09:54:02;52272.81;;;-145.37;82.77
13486;BME280;6815;59.336;17.998;2023-02-18T09:56:31;52248.84;;;-145.37;82.91
13486;BME280;6815;59.336;17.998;2023-02-18T09:59:03;52282.78;;;-145.37;83.16
13486;BME280;6815;59.336;17.998;2023-02-18T10:01:35;52292.78;;;-145.37;82.98
13486;BME280;6815;59.336;17.998;2023-02-18T10:04:39;52256.84;;;-145.37;82.83
13486;BME280;6815;59.336;17.998;2023-02-18T10:07:18;52254.84;;;-145.37;82.96
13486;BME280;6815;59.336;17.998;2023-02-18T10:09:46;52286.78;;;-145.37;82.49
13486;BME280;6815;59.336;17.998;2023-02-18T10:12:21;52284.78;;;-145.37;82.52
13486;BME280;6815;59.336;17.998;2023-02-18T10:14:55;52294.75;;;-145.37;82.22
13486;BME280;6815;59.336;17.998;2023-02-18T10:17:24;52288.78;;;-145.37;82.44
13486;BME280;6815;59.336;17.998;2023-02-18T10:19:51;52288.78;;;-145.37;82.09
13486;BME280;6815;59.336;17.998;2023-02-18T10:22:19;52280.78;;;-145.37;82.13
13486;BME280;6815;59.336;17.998;2023-02-18T10:27:29;52284.78;;;-145.37;81.61
13486;BME280;6815;59.336;17.998;2023-02-18T10:30:16;52278.78;;;-145.37;81.92
13486;BME280;6815;59.336;17.998;2023-02-18T10:32:45;52282.78;;;-145.37;81.71
13486;BME280;6815;59.336;17.998;2023-02-18T10:38:17;52258.84;;;-145.37;80.89
13486;BME280;6815;59.336;17.998;2023-02-18T10:51:33;52322.72;;;-145.37;81.81
13486;BME280;6815;59.336;17.998;2023-02-18T10:53:59;52274.81;;;-145.37;81.57
13486;BME280;6815;59.336;17.998;2023-02-18T10:56:40;52284.78;;;-145.37;81.08
13486;BME280;6815;59.336;17.998;2023-02-18T10:59:22;52258.84;;;-145.37;80.03
13486;BME280;6815;59.336;17.998;2023-02-18T11:02:01;52260.84;;;-145.37;79.19
13486;BME280;6815;59.336;17.998;2023-02-18T11:04:35;52260.84;;;-145.37;78.44
13486;BME280;6815;59.336;17.998;2023-02-18T11:07:05;52308.75;;;-145.37;77.69
13486;BME280;6815;59.336;17.998;2023-02-18T11:09:41;52308.75;;;-145.37;77.15
13486;BME280;6815;59.336;17.998;2023-02-18T11:12:26;52266.81;;;-145.37;75.98
13486;BME280;6815;59.336;17.998;2023-02-18T11:15:22;52246.84;;;-145.37;76.03
13486;BME280;6815;59.336;17.998;2023-02-18T11:17:52;52278.78;;;-145.37;75.79
13486;BME280;6815;59.336;17.998;2023-02-18T11:23:20;52264.81;;;-145.37;75.55
13486;BME280;6815;59.336;17.998;2023-02-18T11:26:00;52256.84;;;-145.37;75.02
13486;BME280;6815;59.336;17.998;2023-02-18T11:28:32;52292.78;;;-145.37;75.31
13486;BME280;6815;59.336;17.998;2023-02-18T11:31:04;52280.78;;;-145.37;75.27
13486;BME280;6815;59.336;17.998;2023-02-18T11:33:54;52262.81;;;-145.37;75.40
13486;BME280;6815;59.336;17.998;2023-02-18T11:36:29;52270.81;;;-145.37;75.26
13486;BME280;6815;59.336;17.998;2023-02-18T11:41:36;52292.78;;;-145.37;75.17
13486;BME280;6815;59.336;17.998;2023-02-18T11:44:05;52280.78;;;-145.37;75.54
13486;BME280;6815;59.336;17.998;2023-02-18T11:46:32;52254.84;;;-145.37;75.04
13486;BME280;6815;59.336;17.998;2023-02-18T11:49:20;52222.91;;;-145.37;75.30
13486;BME280;6815;59.336;17.998;2023-02-18T11:51:47;52316.72;;;-145.37;75.44
13486;BME280;6815;59.336;17.998;2023-02-18T11:54:25;52300.75;;;-145.37;74.96
13486;BME280;6815;59.336;17.998;2023-02-18T11:57:03;52248.84;;;-145.37;74.47
13486;BME280;6815;59.336;17.998;2023-02-18T11:59:32;52182.97;;;-145.37;74.10
13486;BME280;6815;59.336;17.998;2023-02-18T12:07:44;52264.81;;;-145.37;72.46
13486;BME280;6815;59.336;17.998;2023-02-18T12:10:13;52250.84;;;-145.37;72.09
13486;BME280;6815;59.336;17.998;2023-02-18T12:12:47;52304.75;;;-145.37;71.73
13486;BME280;6815;59.336;17.998;2023-02-18T12:15:25;52298.75;;;-145.37;71.40
13486;BME280;6815;59.336;17.998;2023-02-18T12:33:26;52294.75;;;-145.37;70.53
13486;BME280;6815;59.336;17.998;2023-02-18T13:01:34;52296.75;;;-145.37;67.37
13486;BME280;6815;59.336;17.998;2023-02-18T13:09:35;52288.78;;;-145.37;66.82
13486;BME280;6815;59.336;17.998;2023-02-18T13:14:48;52278.78;;;-145.37;65.19
13486;BME280;6815;59.336;17.998;2023-02-18T13:17:17;52278.78;;;-145.37;65.34
13486;BME280;6815;59.336;17.998;2023-02-18T13:19:52;52284.78;;;-145.37;65.95
13486;BME280;6815;59.336;17.998;2023-02-18T13:22:21;52310.75;;;-145.37;65.83
13486;BME280;6815;59.336;17.998;2023-02-18T13:24:51;52260.84;;;-145.37;66.20
13486;BME280;6815;59.336;17.998;2023-02-18T13:30:22;52278.78;;;-145.37;65.16
13486;BME280;6815;59.336;17.998;2023-02-18T13:35:41;52296.75;;;-145.37;65.81
13486;BME280;6815;59.336;17.998;2023-02-18T13:41:02;52302.75;;;-145.37;66.41
13486;BME280;6815;59.336;17.998;2023-02-18T13:43:33;52280.78;;;-145.37;66.77
13486;BME280;6815;59.336;17.998;2023-02-18T13:48:28;52284.78;;;-145.37;66.35
13486;BME280;6815;59.336;17.998;2023-02-18T13:51:01;52286.78;;;-145.37;66.06
13486;BME280;6815;59.336;17.998;2023-02-18T13:53:30;52262.81;;;-145.37;66.71
13486;BME280;6815;59.336;17.998;2023-02-18T13:56:01;52330.69;;;-145.37;66.85
13486;BME280;6815;59.336;17.998;2023-02-18T13:58:55;52256.84;;;-145.37;66.85
13486;BME280;6815;59.336;17.998;2023-02-18T14:01:41;52300.75;;;-145.37;66.88
13486;BME280;6815;59.336;17.998;2023-02-18T14:10:13;52296.75;;;-145.37;66.65
13486;BME280;6815;59.336;17.998;2023-02-18T14:18:22;52306.75;;;-145.37;64.86
13486;BME280;6815;59.336;17.998;2023-02-18T14:20:48;52280.78;;;-145.37;64.31
13486;BME280;6815;59.336;17.998;2023-02-18T14:28:38;52326.72;;;-145.37;63.33
13486;BME280;6815;59.336;17.998;2023-02-18T14:34:04;52268.81;;;-145.37;63.54
13486;BME280;6815;59.336;17.998;2023-02-18T14:50:00;52302.75;;;-145.37;63.79
13486;BME280;6815;59.336;17.998;2023-02-18T14:52:29;52298.75;;;-145.37;63.23
13486;BME280;6815;59.336;17.998;2023-02-18T14:54:59;52306.75;;;-145.37;63.74
13486;BME280;6815;59.336;17.998;2023-02-18T14:57:52;52268.81;;;-145.37;63.47
13486;BME280;6815;59.336;17.998;2023-02-18T15:00:22;52362.63;;;-145.37;63.24
13486;BME280;6815;59.336;17.998;2023-02-18T15:02:50;52296.75;;;-145.37;62.94
13486;BME280;6815;59.336;17.998;2023-02-18T15:07:59;52298.75;;;-145.37;63.44
13486;BME280;6815;59.336;17.998;2023-02-18T15:10:52;52276.81;;;-145.37;63.07
13486;BME280;6815;59.336;17.998;2023-02-18T15:13:28;52306.75;;;-145.37;63.16
13486;BME280;6815;59.336;17.998;2023-02-18T15:16:05;52296.75;;;-145.37;62.87
13486;BME280;6815;59.336;17.998;2023-02-18T15:18:39;52270.81;;;-145.37;62.53
13486;BME280;6815;59.336;17.998;2023-02-18T15:21:08;52296.75;;;-145.37;62.51
13486;BME280;6815;59.336;17.998;2023-02-18T15:23:36;52270.81;;;-145.37;62.45
13486;BME280;6815;59.336;17.998;2023-02-18T15:26:03;52290.78;;;-145.37;62.71
13486;BME280;6815;59.336;17.998;2023-02-18T15:28:32;52320.72;;;-145.37;62.49
13486;BME280;6815;59.336;17.998;2023-02-18T15:31:00;52300.75;;;-145.37;61.84
13486;BME280;6815;59.336;17.998;2023-02-18T15:33:26;52300.75;;;-145.37;61.97
13486;BME280;6815;59.336;17.998;2023-02-18T15:36:04;52222.91;;;-145.37;61.30
13486;BME280;6815;59.336;17.998;2023-02-18T15:38:32;52302.75;;;-145.37;61.27